Accord, New York
Current Conditions -  °F | °C
As of 3:17 PM on Thursday 27 Nov 2014 (Local Time) from KMGJ Reporting Station
Overcast Overcast  
Wind Chill: 33°   Ceiling: 1400
Heat Index: 33°   Visibility: 7mi
Dew Point: 29°   Wind: 3mph
Humidity: 85%   Direction: 10°N
Pressure: 29.97"   Gusts: NA
Location:  41.79°N, 74.23°W
Report Text: KMGJ 272017Z AUTO 01003KT 7SM OVC014 01/M02 A2997 RMK AO2 SNE10 P0000 T00061017 TSNO $
Loading
Personal Weather Stations






























Interactive Weather Map New forecast layout! Learn more

10-Day Weather Forecast

Advertisements
Track Severe Weather on mobile